METAR Analyzer

一覧表示

Hello, Guest. (Login)

KJFK/JFK  -  ジョン・F・ケネディ

観測日時
2021-05-15 17:51 (UTC) (37分前)
気温
21.1
露点
4.4
湿数
16.7
相対湿度
33.4%
QNH
1024.4hPa
推定現地気圧
1023.9hPa
推定海面気圧
1024.4hPa
体感温度
12.9
(無風時)
19.7
HI
20.1
気温前日比
-1.1
体感温度前日比
-0.3
HI前日比
-1.1
水平視程
>10SM
鉛直視程
データなし
雲底高度
No dense clouds
V/I
VMC (VFR)
RVR
No RVR data
卓越風
9kt from 190°
ガスト
No gust
降水
報告なし
その他の天気
報告なし
散在する雲 @ 8500ft AGL / 散在する雲 @ 15000ft AGL

KJFK 151751Z 19009KT 10SM SCT085 SCT150 21/04 A3025 RMK AO2 SLP242 T02110044 10239 20133 58002

KLGA/LGA  -  ラガーディア

観測日時
2021-05-15 17:51 (UTC) (37分前)
気温
23.9
露点
0.6
湿数
23.3
相対湿度
21.5%
QNH
1023.0hPa
推定現地気圧
1022.3hPa
推定海面気圧
1023.0hPa
体感温度
16.1
(無風時)
20.8
HI
22.9
気温前日比
+0.6
体感温度前日比
-0.6
HI前日比
+0.7
水平視程
>10SM
鉛直視程
データなし
雲底高度
No dense clouds
V/I
VMC (VFR)
RVR
No RVR data
卓越風
6kt from VRB
ガスト
No gust
降水
報告なし
その他の天気
報告なし
少しの雲 @ 8000ft AGL / 少しの雲 @ 15000ft AGL / 散在する雲 @ 25000ft AGL

KLGA 151751Z VRB06KT 10SM FEW080 FEW150 SCT250 24/01 A3021 RMK AO2 SLP231 T02390006 10250 20167 58010 $

KEWR/EWR  -  ニューアーク・リバティー

観測日時
2021-05-15 17:51 (UTC) (37分前)
気温
25
露点
1.7
湿数
23.3
相対湿度
21.8%
QNH
1023.4hPa
推定現地気圧
1022.8hPa
推定海面気圧
1023.4hPa
体感温度
16.5
(無風時)
21.5
HI
24.1
気温前日比
-0.6
体感温度前日比
-0.5
HI前日比
-0.6
水平視程
>10SM
鉛直視程
データなし
雲底高度
No dense clouds
V/I
VMC (VFR)
RVR
No RVR data
卓越風
9kt from 150°
ガスト
No gust
降水
報告なし
その他の天気
報告なし
散在する雲 @ 10000ft AGL / 散在する雲 @ 25000ft AGL

KEWR 151751Z 15009KT 10SM SCT100 SCT250 25/02 A3022 RMK AO2 SLP231 T02500017 10261 20172 58010

KIAD/IAD  -  ワシントン・ダレス

観測日時
2021-05-15 17:52 (UTC) (36分前)
気温
22.8
露点
-0.6
湿数
23.4
相対湿度
21.1%
QNH
1024.0hPa
推定現地気圧
1012.5hPa
推定海面気圧
1023.6hPa
体感温度
20.1
(無風時)
20.1
HI
21.7
気温前日比
+1.7
体感温度前日比
+6
HI前日比
+1.7
水平視程
>10SM
鉛直視程
データなし
雲底高度
No dense clouds
V/I
VMC (VFR)
RVR
No RVR data
卓越風
静穏
ガスト
No gust
降水
報告なし
その他の天気
報告なし
少しの雲 @ 6000ft AGL / 散在する雲 @ 8500ft AGL

KIAD 151752Z 00000KT 10SM FEW060 SCT085 23/M01 A3024 RMK AO2 SLP239 T02281006 10250 20122 58012 $

KDTW/DTW  -  デトロイト・メトロポリタン・ウェイン・カウンティ